createdAt,value
2017-11-27T00:00:35.400Z,38.50
2017-11-27T00:01:39.715Z,33.50
2017-11-27T00:02:43.910Z,34.50
2017-11-27T00:03:48.139Z,40.50
2017-11-27T00:04:52.336Z,32.00
2017-11-27T00:05:56.614Z,38.50
2017-11-27T00:07:01.176Z,37.00
2017-11-27T00:08:05.411Z,46.00
2017-11-27T00:09:09.746Z,32.00
2017-11-27T00:10:14.033Z,38.50
2017-11-27T00:11:18.324Z,47.00
2017-11-27T00:12:22.590Z,44.00
2017-11-27T00:13:28.143Z,32.50
2017-11-27T00:14:32.391Z,37.00
2017-11-27T00:15:37.005Z,38.50
2017-11-27T00:16:41.277Z,36.50
2017-11-27T00:17:45.445Z,35.50
2017-11-27T00:18:49.688Z,26.00
2017-11-27T00:19:53.880Z,28.50
2017-11-27T00:20:58.117Z,31.50
2017-11-27T00:22:02.499Z,33.00
2017-11-27T00:23:06.736Z,31.00
2017-11-27T00:24:11.110Z,42.00
2017-11-27T00:25:15.559Z,35.50
2017-11-27T00:26:19.951Z,32.50
2017-11-27T00:27:25.372Z,40.00
2017-11-27T00:28:30.379Z,39.00
2017-11-27T00:29:34.640Z,47.00
2017-11-27T00:30:38.874Z,33.50
2017-11-27T00:31:43.063Z,27.00
2017-11-27T00:32:47.329Z,42.00
2017-11-27T00:33:51.560Z,31.00
2017-11-27T00:34:55.793Z,35.50
2017-11-27T00:35:59.956Z,32.50
2017-11-27T00:37:04.150Z,33.00
2017-11-27T00:38:08.347Z,40.50
2017-11-27T00:39:12.672Z,40.50
2017-11-27T00:40:16.900Z,35.00
2017-11-27T00:41:22.304Z,39.50
2017-11-27T00:42:27.780Z,35.00
2017-11-27T00:43:32.061Z,40.50
2017-11-27T00:44:36.261Z,36.50
2017-11-27T00:45:40.626Z,40.00
2017-11-27T00:46:44.751Z,39.00
2017-11-27T00:47:49.398Z,28.00
2017-11-27T00:48:53.594Z,36.00
2017-11-27T00:49:57.855Z,32.00
2017-11-27T00:51:02.058Z,35.50
2017-11-27T00:52:06.284Z,36.50
2017-11-27T00:53:10.572Z,35.50
2017-11-27T00:54:15.191Z,33.00
2017-11-27T00:55:20.537Z,36.00
2017-11-27T00:56:29.827Z,29.00
2017-11-27T00:57:34.093Z,34.00
2017-11-27T00:58:38.417Z,43.50
2017-11-27T00:59:42.697Z,36.00
2017-11-27T01:00:47.579Z,37.50
2017-11-27T01:01:51.848Z,35.50
2017-11-27T01:02:56.167Z,31.50
2017-11-27T01:04:00.406Z,36.50
2017-11-27T01:05:04.580Z,36.50
2017-11-27T01:06:08.738Z,36.50
2017-11-27T01:07:13.093Z,31.00
2017-11-27T01:08:17.929Z,28.50
2017-11-27T01:09:23.073Z,42.50
2017-11-27T01:10:28.006Z,32.00
2017-11-27T01:11:32.301Z,32.00
2017-11-27T01:12:36.512Z,35.00
2017-11-27T01:13:41.011Z,30.50
2017-11-27T01:14:45.207Z,41.50
2017-11-27T01:15:49.640Z,34.00
2017-11-27T01:16:53.975Z,36.50
2017-11-27T01:17:58.149Z,30.00
2017-11-27T01:19:02.310Z,35.50
2017-11-27T01:20:06.832Z,37.50
2017-11-27T01:21:11.061Z,39.00
2017-11-27T01:22:15.433Z,31.50
2017-11-27T01:23:20.920Z,24.00
2017-11-27T01:24:25.744Z,32.00
2017-11-27T01:25:29.947Z,37.50
2017-11-27T01:26:34.248Z,40.50
2017-11-27T01:27:38.401Z,43.50
2017-11-27T01:28:42.579Z,43.50
2017-11-27T01:29:46.765Z,33.00
2017-11-27T01:30:51.231Z,36.00
2017-11-27T01:31:55.535Z,33.50
2017-11-27T01:32:59.718Z,33.50
2017-11-27T01:34:03.983Z,34.00
2017-11-27T01:35:08.169Z,28.00
2017-11-27T01:36:12.632Z,46.00
2017-11-27T01:37:16.790Z,26.50
2017-11-27T01:38:21.039Z,31.50
2017-11-27T01:39:25.312Z,35.00
2017-11-27T01:40:29.510Z,23.00
2017-11-27T01:41:33.722Z,30.50
2017-11-27T01:42:37.878Z,32.50
2017-11-27T01:43:42.369Z,37.00
2017-11-27T01:44:46.596Z,35.00
2017-11-27T01:45:51.070Z,43.00
2017-11-27T01:46:55.306Z,40.50
2017-11-27T01:47:59.496Z,31.00
2017-11-27T01:49:03.830Z,32.00
2017-11-27T01:50:08.317Z,39.50
2017-11-27T01:51:12.590Z,41.00
2017-11-27T01:52:16.857Z,48.00
2017-11-27T01:53:21.847Z,37.00
2017-11-27T01:54:26.018Z,44.00
2017-11-27T01:55:33.066Z,39.00
2017-11-27T01:56:38.424Z,33.50
2017-11-27T01:57:42.644Z,46.00
2017-11-27T01:58:46.813Z,43.00
2017-11-27T01:59:50.948Z,48.00
2017-11-27T02:00:55.456Z,48.00
2017-11-27T02:02:01.081Z,50.00
2017-11-27T02:03:05.261Z,38.00
2017-11-27T02:04:10.359Z,37.00
2017-11-27T02:05:14.587Z,42.00
2017-11-27T02:06:18.765Z,34.00
2017-11-27T02:07:23.640Z,43.00
2017-11-27T02:08:28.162Z,50.00
2017-11-27T02:09:32.503Z,39.00
2017-11-27T02:10:36.830Z,41.00
2017-11-27T02:11:41.017Z,40.00
2017-11-27T02:12:45.199Z,43.50
2017-11-27T02:13:49.449Z,35.50
2017-11-27T02:14:54.037Z,42.00
2017-11-27T02:15:58.427Z,45.00
2017-11-27T02:17:02.917Z,50.00
2017-11-27T02:18:07.159Z,39.00
2017-11-27T02:19:11.540Z,33.50
2017-11-27T02:20:15.752Z,41.00
2017-11-27T02:21:20.328Z,37.00
2017-11-27T02:22:25.299Z,43.00
2017-11-27T02:23:29.419Z,48.50
2017-11-27T02:24:33.572Z,40.00
2017-11-27T02:25:37.783Z,44.50
2017-11-27T02:26:42.069Z,48.00
2017-11-27T02:27:46.236Z,37.50
2017-11-27T02:28:50.424Z,39.00
2017-11-27T02:29:54.671Z,32.00
2017-11-27T02:30:59.286Z,40.50
2017-11-27T02:32:03.672Z,43.00
2017-11-27T02:33:07.895Z,43.00
2017-11-27T02:34:12.525Z,47.00
2017-11-27T02:35:17.224Z,42.50
2017-11-27T02:36:22.965Z,34.00
2017-11-27T02:37:28.654Z,66.00
2017-11-27T02:38:32.937Z,46.50
2017-11-27T02:39:37.144Z,34.50
2017-11-27T02:40:41.678Z,48.50
2017-11-27T02:41:45.864Z,59.00
2017-11-27T02:42:49.991Z,41.50
2017-11-27T02:43:54.249Z,52.00
2017-11-27T02:44:58.457Z,60.00
2017-11-27T02:46:02.927Z,61.00
2017-11-27T02:47:07.501Z,39.00
2017-11-27T02:48:11.854Z,50.00
2017-11-27T02:49:16.128Z,40.00
2017-11-27T02:50:21.199Z,53.00
2017-11-27T02:51:25.373Z,57.50
2017-11-27T02:52:30.135Z,60.50
2017-11-27T02:53:34.285Z,66.00
2017-11-27T02:54:38.506Z,46.50
2017-11-27T02:55:42.659Z,52.50
2017-11-27T02:56:46.844Z,59.50
2017-11-27T02:57:51.089Z,58.50
2017-11-27T02:58:55.590Z,65.00
2017-11-27T02:59:59.737Z,59.00
2017-11-27T03:01:04.156Z,51.50
2017-11-27T03:02:08.356Z,48.00
2017-11-27T03:03:12.593Z,64.00
2017-11-27T03:04:16.818Z,51.00
2017-11-27T03:05:22.472Z,52.50
2017-11-27T03:06:26.709Z,45.50
2017-11-27T03:07:30.968Z,57.50
2017-11-27T03:08:38.777Z,51.00
2017-11-27T03:09:42.974Z,51.50
2017-11-27T03:10:47.163Z,49.50
2017-11-27T03:11:52.140Z,49.50
2017-11-27T03:12:56.308Z,48.00
2017-11-27T03:14:00.457Z,37.00
2017-11-27T03:15:06.838Z,47.00
2017-11-27T03:16:11.619Z,51.00
2017-11-27T03:17:16.077Z,74.50
2017-11-27T03:18:21.364Z,68.50
2017-11-27T03:19:25.559Z,61.00
2017-11-27T03:20:30.734Z,61.00
2017-11-27T03:21:35.628Z,61.50
2017-11-27T03:22:39.839Z,57.50
2017-11-27T03:23:44.083Z,68.00
2017-11-27T03:24:48.640Z,43.50
2017-11-27T03:25:52.914Z,54.00
2017-11-27T03:26:57.174Z,45.00
2017-11-27T03:28:01.323Z,63.00
2017-11-27T03:29:05.701Z,68.50
2017-11-27T03:30:12.115Z,84.00
2017-11-27T03:31:17.096Z,53.00
2017-11-27T03:32:21.458Z,45.00
2017-11-27T03:33:25.676Z,52.50
2017-11-27T03:34:30.516Z,53.00
2017-11-27T03:35:34.795Z,51.50
2017-11-27T03:36:39.495Z,60.00
2017-11-27T03:37:44.070Z,45.00
2017-11-27T03:38:48.566Z,41.00
2017-11-27T03:39:53.447Z,52.50
2017-11-27T03:40:58.068Z,72.00
2017-11-27T03:42:02.280Z,46.50
2017-11-27T03:43:07.280Z,53.00
2017-11-27T03:44:13.627Z,62.00
2017-11-27T03:45:18.103Z,72.50
2017-11-27T03:46:22.475Z,67.50
2017-11-27T03:47:26.737Z,60.00
2017-11-27T03:48:31.879Z,53.50
2017-11-27T03:49:37.217Z,53.00
2017-11-27T03:50:41.404Z,59.00
2017-11-27T03:51:46.477Z,60.00
2017-11-27T03:52:50.666Z,48.50
2017-11-27T03:53:54.806Z,61.00
2017-11-27T03:54:59.029Z,74.00
2017-11-27T03:56:03.643Z,58.50
2017-11-27T03:57:07.880Z,45.50
2017-11-27T03:58:12.077Z,39.00
2017-11-27T03:59:16.317Z,53.50
2017-11-27T04:00:20.765Z,68.50
2017-11-27T04:01:24.953Z,55.00
2017-11-27T04:02:30.309Z,48.50
2017-11-27T04:03:36.086Z,46.00
2017-11-27T04:04:40.275Z,51.00
2017-11-27T04:05:44.478Z,51.00
2017-11-27T04:06:48.705Z,51.00
2017-11-27T04:07:53.007Z,44.50
2017-11-27T04:08:57.310Z,53.00
2017-11-27T04:10:01.438Z,44.50
2017-11-27T04:11:05.597Z,43.00
2017-11-27T04:12:09.826Z,59.00
2017-11-27T04:13:14.054Z,49.00
2017-11-27T04:14:18.292Z,49.00
2017-11-27T04:15:23.174Z,54.50
2017-11-27T04:16:27.340Z,56.00
2017-11-27T04:17:31.620Z,52.50
2017-11-27T04:18:35.774Z,59.00
2017-11-27T04:19:39.932Z,49.50
2017-11-27T04:20:44.193Z,45.50
2017-11-27T04:21:48.688Z,57.00
2017-11-27T04:22:52.899Z,45.50
2017-11-27T04:23:57.100Z,54.00
2017-11-27T04:25:01.351Z,49.50
2017-11-27T04:26:05.560Z,52.50
2017-11-27T04:27:09.721Z,66.00
2017-11-27T04:28:14.336Z,53.50
2017-11-27T04:29:18.569Z,59.00
2017-11-27T04:30:25.437Z,56.00
2017-11-27T04:31:30.658Z,45.00
2017-11-27T04:32:36.240Z,52.00
2017-11-27T04:33:41.507Z,55.00
2017-11-27T04:34:45.807Z,43.50
2017-11-27T04:35:50.025Z,60.00
2017-11-27T04:36:54.216Z,37.50
2017-11-27T04:37:58.377Z,53.50
2017-11-27T04:39:02.632Z,65.50
2017-11-27T04:40:07.149Z,60.50
2017-11-27T04:41:11.292Z,49.00
2017-11-27T04:42:15.428Z,53.00
2017-11-27T04:43:19.595Z,65.50
2017-11-27T04:44:23.778Z,52.00
2017-11-27T04:45:31.657Z,68.50
2017-11-27T04:46:37.005Z,65.00
2017-11-27T04:47:41.161Z,54.00
2017-11-27T04:48:45.468Z,64.00
2017-11-27T04:49:49.641Z,58.50
2017-11-27T04:50:53.853Z,58.00
2017-11-27T04:51:58.016Z,63.50
2017-11-27T04:53:02.607Z,49.00
2017-11-27T04:54:06.812Z,40.50
2017-11-27T04:55:10.997Z,46.00
2017-11-27T04:56:15.175Z,60.00
2017-11-27T04:57:19.281Z,47.00
2017-11-27T04:58:23.511Z,61.50
2017-11-27T04:59:27.844Z,72.50
2017-11-27T05:00:33.040Z,57.00
2017-11-27T05:01:37.752Z,53.50
2017-11-27T05:02:41.885Z,52.00
2017-11-27T05:03:46.162Z,47.50
2017-11-27T05:04:50.389Z,63.50
2017-11-27T05:05:54.915Z,57.00
2017-11-27T05:06:59.071Z,56.00
2017-11-27T05:08:03.373Z,42.00
2017-11-27T05:09:07.540Z,52.50
2017-11-27T05:10:11.698Z,58.00
2017-11-27T05:11:15.933Z,63.00
2017-11-27T05:12:20.486Z,65.00
2017-11-27T05:13:24.781Z,65.00
2017-11-27T05:14:30.014Z,58.00
2017-11-27T05:15:34.790Z,82.50
2017-11-27T05:16:40.031Z,70.00
2017-11-27T05:17:44.193Z,61.50
2017-11-27T05:18:48.976Z,62.00
2017-11-27T05:19:53.108Z,71.00
2017-11-27T05:20:57.249Z,63.00
2017-11-27T05:22:01.573Z,63.50
2017-11-27T05:23:05.746Z,52.50
2017-11-27T05:24:10.019Z,39.00
2017-11-27T05:25:14.219Z,60.00
2017-11-27T05:26:19.307Z,67.00
2017-11-27T05:27:23.535Z,63.50
2017-11-27T05:28:28.317Z,53.00
2017-11-27T05:29:33.101Z,54.50
2017-11-27T05:30:38.297Z,67.00
2017-11-27T05:31:42.568Z,53.50
2017-11-27T05:32:46.846Z,64.50
2017-11-27T05:33:50.962Z,50.50
2017-11-27T05:34:55.307Z,43.00
2017-11-27T05:35:59.488Z,70.00
2017-11-27T05:37:04.014Z,59.00
2017-11-27T05:38:08.269Z,62.00
2017-11-27T05:39:12.514Z,59.00
2017-11-27T05:40:16.659Z,68.50
2017-11-27T05:41:21.067Z,60.50
2017-11-27T05:42:25.241Z,59.50
2017-11-27T05:43:30.611Z,75.00
2017-11-27T05:44:34.815Z,76.00
2017-11-27T05:45:39.625Z,52.00
2017-11-27T05:46:44.015Z,87.00
2017-11-27T05:47:48.686Z,62.50
2017-11-27T05:48:52.833Z,59.00
2017-11-27T05:49:57.108Z,69.50
2017-11-27T05:51:01.484Z,57.00
2017-11-27T05:52:06.134Z,64.50
2017-11-27T05:53:10.349Z,58.50
2017-11-27T05:54:14.599Z,53.50
2017-11-27T05:55:18.869Z,76.50
2017-11-27T05:56:23.488Z,70.50
2017-11-27T05:57:27.668Z,70.50
2017-11-27T05:58:32.514Z,71.50
2017-11-27T05:59:36.643Z,55.50
2017-11-27T06:00:41.072Z,56.50
2017-11-27T06:01:52.233Z,72.00
2017-11-27T06:02:56.404Z,60.00
2017-11-27T06:04:00.567Z,66.00
2017-11-27T06:05:04.894Z,55.50
2017-11-27T06:06:09.076Z,57.00
2017-11-27T06:07:13.363Z,63.50
2017-11-27T06:08:17.877Z,59.50
2017-11-27T06:09:22.048Z,67.50
2017-11-27T06:10:26.243Z,61.00
2017-11-27T06:11:30.459Z,76.00
2017-11-27T06:12:34.719Z,86.00
2017-11-27T06:13:39.659Z,73.50
2017-11-27T06:14:43.785Z,56.00
2017-11-27T06:15:47.998Z,49.50
2017-11-27T06:16:52.228Z,64.00
2017-11-27T06:17:56.477Z,78.00
2017-11-27T06:19:00.714Z,74.00
2017-11-27T06:20:04.921Z,72.00
2017-11-27T06:21:09.480Z,52.50
2017-11-27T06:22:13.643Z,73.50
2017-11-27T06:23:17.818Z,59.50
2017-11-27T06:24:22.154Z,78.50
2017-11-27T06:25:26.329Z,62.00
2017-11-27T06:26:31.085Z,72.50
2017-11-27T06:27:35.546Z,68.00
2017-11-27T06:28:40.425Z,62.00
2017-11-27T06:29:44.714Z,71.00
2017-11-27T06:30:48.964Z,66.00
2017-11-27T06:31:53.142Z,55.00
2017-11-27T06:32:57.430Z,69.00
2017-11-27T06:34:01.960Z,70.50
2017-11-27T06:35:06.124Z,72.00
2017-11-27T06:36:10.274Z,47.00
2017-11-27T06:37:14.599Z,82.50
2017-11-27T06:38:18.926Z,75.00
2017-11-27T06:39:23.268Z,63.00
2017-11-27T06:40:27.609Z,65.00
2017-11-27T06:41:31.926Z,58.00
2017-11-27T06:42:36.108Z,82.50
2017-11-27T06:43:40.345Z,69.50
2017-11-27T06:44:44.628Z,67.50
2017-11-27T06:45:48.860Z,72.50
2017-11-27T06:46:53.119Z,88.50
2017-11-27T06:47:57.438Z,89.00
2017-11-27T06:49:01.607Z,58.00
2017-11-27T06:50:05.915Z,68.00
2017-11-27T06:51:10.118Z,75.00
2017-11-27T06:52:14.247Z,64.50
2017-11-27T06:53:18.485Z,83.00
2017-11-27T06:54:22.848Z,80.50
2017-11-27T06:55:27.046Z,81.50
2017-11-27T06:56:31.663Z,73.50
2017-11-27T06:57:35.800Z,50.50
2017-11-27T06:58:39.960Z,67.00
2017-11-27T06:59:44.264Z,66.00
2017-11-27T07:00:48.757Z,89.00
2017-11-27T07:01:53.181Z,52.00
2017-11-27T07:02:57.746Z,75.50
2017-11-27T07:04:01.965Z,63.50
2017-11-27T07:05:06.208Z,65.00
2017-11-27T07:06:10.398Z,70.50
2017-11-27T07:07:14.674Z,71.00
2017-11-27T07:08:19.124Z,57.50
2017-11-27T07:09:23.612Z,70.50
2017-11-27T07:10:27.862Z,69.50
2017-11-27T07:11:32.095Z,88.00
2017-11-27T07:12:36.793Z,76.50
2017-11-27T07:13:41.076Z,65.50
2017-11-27T07:14:45.313Z,58.50
2017-11-27T07:15:49.685Z,54.00
2017-11-27T07:16:54.237Z,84.00
2017-11-27T07:17:58.549Z,67.50
2017-11-27T07:19:02.831Z,70.50
2017-11-27T07:20:07.084Z,49.50
2017-11-27T07:21:11.275Z,70.50
2017-11-27T07:22:15.748Z,96.50
2017-11-27T07:23:19.991Z,88.50
2017-11-27T07:24:24.393Z,44.00
2017-11-27T07:25:28.627Z,74.00
2017-11-27T07:26:32.855Z,73.50
2017-11-27T07:27:37.168Z,61.50
2017-11-27T07:28:41.368Z,70.00
2017-11-27T07:29:45.600Z,68.50
2017-11-27T07:30:49.844Z,60.50
2017-11-27T07:31:54.139Z,80.50
2017-11-27T07:32:58.336Z,72.50
2017-11-27T07:34:02.922Z,78.00
2017-11-27T07:35:07.125Z,78.50
2017-11-27T07:36:11.294Z,72.00
2017-11-27T07:37:19.499Z,76.50
2017-11-27T07:38:27.769Z,84.50
2017-11-27T07:40:04.299Z,66.00
2017-11-27T07:41:08.537Z,68.50
2017-11-27T07:42:12.749Z,80.00
2017-11-27T07:43:16.871Z,65.50
2017-11-27T07:44:21.157Z,56.50
2017-11-27T07:45:25.692Z,102.50
2017-11-27T07:46:30.163Z,65.50
2017-11-27T07:47:35.430Z,82.00
2017-11-27T07:48:39.633Z,76.50
2017-11-27T07:49:43.829Z,74.50
2017-11-27T07:50:48.004Z,73.50
2017-11-27T07:51:52.488Z,80.00
2017-11-27T07:52:56.725Z,66.50
2017-11-27T07:54:00.895Z,75.00
2017-11-27T07:55:05.168Z,57.50
2017-11-27T07:56:09.361Z,50.50
2017-11-27T07:57:13.632Z,61.50
2017-11-27T07:58:18.164Z,63.00
2017-11-27T07:59:22.403Z,82.00
2017-11-27T08:00:26.769Z,73.50
2017-11-27T08:01:32.940Z,65.00
2017-11-27T08:03:39.227Z,63.00
2017-11-27T08:04:44.071Z,74.00
2017-11-27T08:05:48.386Z,90.00
2017-11-27T08:06:52.574Z,52.00
2017-11-27T08:07:56.771Z,54.50
2017-11-27T08:09:00.967Z,47.50
2017-11-27T08:10:05.096Z,45.00
2017-11-27T08:11:09.353Z,57.00
2017-11-27T08:12:13.615Z,53.00
2017-11-27T08:13:17.841Z,59.50
2017-11-27T08:14:22.148Z,64.00
2017-11-27T08:15:26.293Z,93.50
2017-11-27T08:16:30.528Z,62.00
2017-11-27T08:17:35.170Z,62.50
2017-11-27T08:18:39.399Z,62.00
2017-11-27T08:19:43.589Z,77.50
2017-11-27T08:20:47.905Z,63.00
2017-11-27T08:21:52.182Z,80.00
2017-11-27T08:22:56.700Z,80.00
2017-11-27T08:24:00.917Z,51.50
2017-11-27T08:25:05.097Z,56.50
2017-11-27T08:26:09.417Z,61.00
2017-11-27T08:27:13.612Z,69.00
2017-11-27T08:28:17.799Z,76.00
2017-11-27T08:29:22.029Z,51.50
2017-11-27T08:30:26.355Z,51.50
2017-11-27T08:31:30.559Z,58.00
2017-11-27T08:32:35.529Z,61.50
2017-11-27T08:33:39.709Z,51.00
2017-11-27T08:34:44.197Z,63.00
2017-11-27T08:35:48.445Z,80.50
2017-11-27T08:36:52.604Z,50.50
2017-11-27T08:37:57.129Z,69.50
2017-11-27T08:39:01.391Z,69.50
2017-11-27T08:40:06.000Z,60.00
2017-11-27T08:41:10.169Z,64.50
2017-11-27T08:42:14.354Z,58.50
2017-11-27T08:43:18.535Z,66.00
2017-11-27T08:44:22.816Z,56.50
2017-11-27T08:45:27.343Z,68.50
2017-11-27T08:46:32.344Z,83.00
2017-11-27T08:47:36.494Z,62.00
2017-11-27T08:48:40.736Z,50.50
2017-11-27T08:49:45.052Z,60.50
2017-11-27T08:50:49.300Z,63.00
2017-11-27T08:51:53.544Z,80.50
2017-11-27T08:52:57.823Z,63.50
2017-11-27T08:54:02.015Z,72.00
2017-11-27T08:55:06.282Z,57.00
2017-11-27T08:56:10.455Z,63.50
2017-11-27T08:57:14.636Z,50.00
2017-11-27T08:58:19.249Z,64.00
2017-11-27T08:59:23.437Z,44.00
2017-11-27T09:00:28.092Z,82.00
2017-11-27T09:01:32.246Z,60.00
2017-11-27T09:02:36.371Z,67.50
2017-11-27T09:03:40.685Z,54.50
2017-11-27T09:04:45.149Z,48.00
2017-11-27T09:05:49.425Z,56.00
2017-11-27T09:06:53.619Z,51.50
2017-11-27T09:07:57.957Z,76.50
2017-11-27T09:09:02.237Z,80.00
2017-11-27T09:10:06.457Z,36.00
2017-11-27T09:11:10.977Z,49.00
2017-11-27T09:12:15.168Z,36.00
2017-11-27T09:13:19.381Z,65.00
2017-11-27T09:14:23.662Z,56.00
2017-11-27T09:15:28.947Z,59.50
2017-11-27T09:16:34.080Z,60.00
2017-11-27T09:17:38.965Z,68.00
2017-11-27T09:18:44.202Z,43.50
2017-11-27T09:19:48.436Z,50.50
2017-11-27T09:20:52.680Z,42.50
2017-11-27T09:21:56.863Z,43.50
2017-11-27T09:23:01.509Z,55.50
2017-11-27T09:24:05.729Z,45.00
2017-11-27T09:25:10.063Z,47.00
2017-11-27T09:26:14.218Z,55.00
2017-11-27T09:27:18.391Z,47.50
2017-11-27T09:28:22.616Z,38.00
2017-11-27T09:29:27.094Z,29.00
2017-11-27T09:30:31.565Z,55.50
2017-11-27T09:31:36.113Z,55.00
2017-11-27T09:32:40.273Z,52.50
2017-11-27T09:33:44.435Z,47.00
2017-11-27T09:34:48.671Z,49.00
2017-11-27T09:35:52.905Z,50.50
2017-11-27T09:36:57.083Z,59.00
2017-11-27T09:38:01.280Z,51.00
2017-11-27T09:39:06.159Z,52.50
2017-11-27T09:40:10.466Z,44.00
2017-11-27T09:41:14.710Z,61.50
2017-11-27T09:42:19.403Z,61.00
2017-11-27T09:43:23.639Z,45.00
2017-11-27T09:44:27.858Z,45.00
2017-11-27T09:45:33.012Z,52.00
2017-11-27T09:46:37.249Z,60.00
2017-11-27T09:47:41.765Z,32.50
2017-11-27T09:48:46.002Z,42.50
2017-11-27T09:49:50.310Z,53.00
2017-11-27T09:50:54.655Z,35.00
2017-11-27T09:51:58.828Z,47.00
2017-11-27T09:53:03.444Z,54.00
2017-11-27T09:54:08.461Z,40.50
2017-11-27T09:55:12.820Z,39.00
2017-11-27T09:56:17.036Z,42.50
2017-11-27T09:57:21.226Z,45.50
2017-11-27T09:58:25.429Z,48.50
2017-11-27T09:59:29.959Z,45.00
2017-11-27T10:00:35.659Z,43.50
2017-11-27T10:01:40.563Z,39.00
2017-11-27T10:02:44.748Z,38.00
2017-11-27T10:03:48.995Z,48.00
2017-11-27T10:04:53.249Z,43.00
2017-11-27T10:05:57.541Z,44.00
2017-11-27T10:07:01.741Z,47.00
2017-11-27T10:08:05.898Z,53.50
2017-11-27T10:09:10.092Z,49.50
2017-11-27T10:10:14.371Z,56.50
2017-11-27T10:11:18.837Z,48.00
2017-11-27T10:12:23.191Z,59.00
2017-11-27T10:13:27.381Z,44.00
2017-11-27T10:14:32.258Z,44.00
2017-11-27T10:15:37.430Z,41.50
2017-11-27T10:16:42.272Z,42.00
2017-11-27T10:17:46.862Z,40.00
2017-11-27T10:18:51.194Z,41.50
2017-11-27T10:19:56.435Z,46.50
2017-11-27T10:21:00.681Z,33.50
2017-11-27T10:22:04.978Z,47.00
2017-11-27T10:23:09.161Z,42.50
2017-11-27T10:24:13.347Z,45.50
2017-11-27T10:25:17.541Z,45.00
2017-11-27T10:26:21.835Z,33.50
2017-11-27T10:27:26.054Z,42.00
2017-11-27T10:28:30.940Z,37.50
2017-11-27T10:29:35.096Z,49.50
2017-11-27T10:30:39.673Z,54.50
2017-11-27T10:31:43.909Z,57.00
2017-11-27T10:32:48.073Z,30.00
2017-11-27T10:33:52.279Z,45.00
2017-11-27T10:34:56.484Z,39.50
2017-11-27T10:36:00.639Z,48.50
2017-11-27T10:37:05.265Z,49.00
2017-11-27T10:38:09.501Z,64.50
2017-11-27T10:39:13.732Z,43.00
2017-11-27T10:40:17.901Z,41.50
2017-11-27T10:41:22.167Z,41.00
2017-11-27T10:42:26.485Z,36.50
2017-11-27T10:43:30.766Z,44.50
2017-11-27T10:44:34.964Z,40.00
2017-11-27T10:45:40.252Z,52.00
2017-11-27T10:46:44.626Z,44.50
2017-11-27T10:47:48.908Z,44.00
2017-11-27T10:48:53.139Z,39.50
2017-11-27T10:49:57.392Z,35.00
2017-11-27T10:51:01.622Z,57.00
2017-11-27T10:52:05.808Z,55.00
2017-11-27T10:53:10.059Z,45.00
2017-11-27T10:54:14.599Z,47.00
2017-11-27T10:55:18.762Z,49.00
2017-11-27T10:56:22.990Z,47.50
2017-11-27T10:57:27.207Z,57.00
2017-11-27T10:58:31.551Z,48.50
2017-11-27T10:59:35.742Z,41.50
2017-11-27T11:00:44.329Z,44.50
2017-11-27T11:01:48.613Z,42.50
2017-11-27T11:02:52.786Z,30.00
2017-11-27T11:03:57.072Z,40.00
2017-11-27T11:05:01.233Z,48.50
2017-11-27T11:06:05.383Z,50.50
2017-11-27T11:07:09.933Z,46.00
2017-11-27T11:08:14.095Z,47.00
2017-11-27T11:09:18.264Z,61.00
2017-11-27T11:10:22.457Z,39.50
2017-11-27T11:11:26.714Z,45.50
2017-11-27T11:12:31.261Z,46.00
2017-11-27T11:13:36.173Z,49.00
2017-11-27T11:14:40.435Z,55.50
2017-11-27T11:15:44.861Z,46.00
2017-11-27T11:16:50.108Z,61.00
2017-11-27T11:17:55.000Z,43.00
2017-11-27T11:18:59.153Z,48.50
2017-11-27T11:20:03.565Z,38.00
2017-11-27T11:21:07.772Z,52.00
2017-11-27T11:22:12.013Z,51.50
2017-11-27T11:23:17.105Z,66.50
2017-11-27T11:24:21.628Z,43.00
2017-11-27T11:25:25.825Z,54.00
2017-11-27T11:26:30.121Z,42.50
2017-11-27T11:27:34.961Z,42.50
2017-11-27T11:28:39.309Z,41.00
2017-11-27T11:29:43.633Z,43.50
2017-11-27T11:30:48.715Z,52.50
2017-11-27T11:31:53.222Z,50.50
2017-11-27T11:32:57.421Z,42.50
2017-11-27T11:34:01.596Z,48.50
2017-11-27T11:35:05.884Z,40.00
2017-11-27T11:36:10.133Z,42.00
2017-11-27T11:37:14.517Z,43.00
2017-11-27T11:38:18.763Z,50.00
2017-11-27T11:39:22.949Z,44.00
2017-11-27T11:40:27.274Z,40.50
2017-11-27T11:41:31.457Z,45.50
2017-11-27T11:42:36.518Z,53.00
2017-11-27T11:43:41.053Z,43.00
2017-11-27T11:44:45.319Z,32.00
2017-11-27T11:45:49.805Z,48.00
2017-11-27T11:46:54.128Z,42.00
2017-11-27T11:47:58.341Z,35.50
2017-11-27T11:49:02.839Z,50.00
2017-11-27T11:50:07.124Z,42.50
2017-11-27T11:51:11.464Z,45.50
2017-11-27T11:52:15.689Z,40.50
2017-11-27T11:53:19.960Z,43.50
2017-11-27T11:54:24.213Z,36.00
2017-11-27T11:55:28.742Z,41.00
2017-11-27T11:56:33.077Z,45.50
2017-11-27T11:57:37.371Z,43.50
2017-11-27T11:58:41.666Z,43.00
2017-11-27T11:59:45.884Z,31.00
2017-11-27T12:00:51.459Z,45.50
2017-11-27T12:01:55.992Z,45.50
2017-11-27T12:03:00.193Z,33.50
2017-11-27T12:04:04.514Z,36.00
2017-11-27T12:05:08.846Z,37.00
2017-11-27T12:06:13.095Z,39.50
2017-11-27T12:07:17.299Z,44.50
2017-11-27T12:08:21.896Z,33.50
2017-11-27T12:09:26.133Z,38.50
2017-11-27T12:10:30.413Z,40.00
2017-11-27T12:11:34.609Z,30.50
2017-11-27T12:12:38.849Z,37.50
2017-11-27T12:13:43.160Z,43.00
2017-11-27T12:14:48.349Z,39.50
2017-11-27T12:15:52.981Z,41.50
2017-11-27T12:16:57.284Z,41.50
2017-11-27T12:18:01.518Z,41.00
2017-11-27T12:19:05.892Z,44.00
2017-11-27T12:20:10.082Z,42.50
2017-11-27T12:21:14.297Z,44.00
2017-11-27T12:22:18.575Z,41.50
2017-11-27T12:23:22.801Z,39.50
2017-11-27T12:24:27.109Z,37.50
2017-11-27T12:25:31.339Z,39.50
2017-11-27T12:26:35.524Z,37.50
2017-11-27T12:27:40.433Z,46.50
2017-11-27T12:28:45.960Z,41.50
2017-11-27T12:29:50.369Z,44.00
2017-11-27T12:30:54.675Z,56.00
2017-11-27T12:31:59.061Z,36.00
2017-11-27T12:33:03.285Z,48.00
2017-11-27T12:34:07.625Z,42.50
2017-11-27T12:35:11.907Z,42.00
2017-11-27T12:36:16.130Z,35.00
2017-11-27T12:37:20.378Z,38.00
2017-11-27T12:38:24.807Z,42.00
2017-11-27T12:39:29.924Z,39.50
2017-11-27T12:40:34.135Z,53.00
2017-11-27T12:41:38.459Z,58.00
2017-11-27T12:42:42.794Z,39.50
2017-11-27T12:43:48.087Z,42.50
2017-11-27T12:44:52.334Z,43.50
2017-11-27T12:45:56.849Z,44.00
2017-11-27T12:47:01.060Z,44.50
2017-11-27T12:48:05.300Z,44.50
2017-11-27T12:49:09.449Z,48.00
2017-11-27T12:50:13.776Z,50.00
2017-11-27T12:51:17.958Z,40.00
2017-11-27T12:52:22.270Z,43.00
2017-11-27T12:53:26.909Z,44.00
2017-11-27T12:54:31.155Z,36.50
2017-11-27T12:55:35.549Z,34.50
2017-11-27T12:56:40.680Z,38.50
2017-11-27T12:57:45.612Z,30.50
2017-11-27T12:58:51.120Z,35.50
2017-11-27T12:59:55.303Z,40.50
2017-11-27T13:00:59.634Z,47.50
2017-11-27T13:02:03.917Z,44.00
2017-11-27T13:03:08.179Z,39.50
2017-11-27T13:04:12.499Z,44.50
2017-11-27T13:05:17.149Z,44.00
2017-11-27T13:06:21.369Z,40.00
2017-11-27T13:07:25.685Z,53.50
2017-11-27T13:08:29.925Z,44.50
2017-11-27T13:09:34.367Z,40.00
2017-11-27T13:10:39.358Z,46.00
2017-11-27T13:11:43.582Z,43.00
2017-11-27T13:12:48.716Z,43.50
2017-11-27T13:13:53.014Z,46.00
2017-11-27T13:14:57.262Z,46.50
2017-11-27T13:16:01.881Z,59.50
2017-11-27T13:17:06.834Z,46.00
2017-11-27T13:18:11.055Z,40.50
2017-11-27T13:19:15.265Z,44.50
2017-11-27T13:20:19.448Z,42.50
2017-11-27T13:21:23.693Z,33.50
2017-11-27T13:22:28.072Z,50.50
2017-11-27T13:23:32.696Z,48.50
2017-11-27T13:24:36.913Z,46.50
2017-11-27T13:25:42.080Z,37.50
2017-11-27T13:26:47.235Z,44.50
2017-11-27T13:27:51.554Z,52.00
2017-11-27T13:28:55.889Z,57.00
2017-11-27T13:30:00.100Z,59.50
2017-11-27T13:31:04.296Z,45.00
2017-11-27T13:32:08.637Z,48.50
2017-11-27T13:33:12.853Z,41.50
2017-11-27T13:34:17.125Z,45.00
2017-11-27T13:35:21.609Z,45.50
2017-11-27T13:36:25.891Z,58.00
2017-11-27T13:37:30.168Z,52.00
2017-11-27T13:38:34.409Z,47.50
2017-11-27T13:39:38.689Z,46.50
2017-11-27T13:40:43.061Z,45.00
2017-11-27T13:41:48.188Z,51.00
2017-11-27T13:42:52.383Z,45.50
2017-11-27T13:43:56.632Z,37.00
2017-11-27T13:45:00.882Z,55.00
2017-11-27T13:46:07.590Z,45.50
2017-11-27T13:47:11.879Z,45.50
2017-11-27T13:48:16.127Z,45.50
2017-11-27T13:49:20.331Z,48.00
2017-11-27T13:50:24.716Z,50.50
2017-11-27T13:51:29.382Z,45.00